Time;durP1;ratioP1;P1;durP2;ratioP2;P2;SDS_P1;SDS_P2;PMS_P1;PMS_P2;Temp;Humidity;BMP_temperature;BMP_pressure;BME280_temperature;BME280_humidity;BME280_pressure;Samples;Min_cycle;Max_cycle;Signal;HPM_P1;HPM_P2
2021/10/26 00:00:30;0.00;0.00;0.62;0.00;0.00;0.62;4.70;3.00;;;25.10;27.50;;;;;;2253035;61;20364;-61
2021/10/26 00:03:16;0.00;0.00;0.62;0.00;0.00;0.62;4.20;3.13;;;25.10;27.50;;;;;;2253143;61;20722;-61
2021/10/26 00:06:00;0.00;0.00;0.62;0.00;0.00;0.62;3.37;3.03;;;25.10;27.70;;;;;;2253446;61;20383;-61
2021/10/26 00:08:45;0.00;0.00;0.62;0.00;0.00;0.62;3.87;2.93;;;25.10;27.70;;;;;;2253037;61;20363;-61
2021/10/26 00:11:30;0.00;0.00;0.62;0.00;0.00;0.62;3.73;2.70;;;25.00;27.60;;;;;;2253579;61;20429;-61
2021/10/26 00:14:14;0.00;0.00;0.62;0.00;0.00;0.62;2.80;2.60;;;25.00;27.60;;;;;;2253538;61;20407;-62
2021/10/26 00:16:59;0.00;0.00;0.62;0.00;0.00;0.62;4.60;3.00;;;25.00;27.60;;;;;;2252501;61;20379;-62
2021/10/26 00:19:45;0.00;0.00;0.62;0.00;0.00;0.62;3.27;2.97;;;25.00;27.70;;;;;;2253514;61;20687;-62
2021/10/26 00:22:30;0.00;0.00;0.62;0.00;0.00;0.62;2.90;2.60;;;25.00;27.70;;;;;;2253622;61;20359;-62
2021/10/26 00:25:14;0.00;0.00;0.62;0.00;0.00;0.62;3.90;3.60;;;25.00;27.70;;;;;;2252991;61;20367;-62
2021/10/26 00:27:59;0.00;0.00;0.62;0.00;0.00;0.62;3.50;3.20;;;25.00;27.70;;;;;;2253374;61;20592;-62
2021/10/26 00:30:44;0.00;0.00;0.62;0.00;0.00;0.62;3.37;3.07;;;25.00;27.70;;;;;;2253247;61;20735;-62
2021/10/26 00:33:31;0.00;0.00;0.62;0.00;0.00;0.62;3.60;3.30;;;24.90;27.70;;;;;;2253781;61;20581;-59
2021/10/26 00:36:17;0.00;0.00;0.62;0.00;0.00;0.62;4.80;3.83;;;24.90;27.70;;;;;;2253882;61;20395;-62
2021/10/26 00:39:04;0.00;0.00;0.62;0.00;0.00;0.62;3.63;3.33;;;24.90;27.80;;;;;;2253343;61;20774;-61
2021/10/26 00:41:49;0.00;0.00;0.62;0.00;0.00;0.62;4.20;3.50;;;24.90;27.80;;;;;;2254099;61;20624;-61
2021/10/26 00:44:34;0.00;0.00;0.62;0.00;0.00;0.62;4.60;4.20;;;24.90;27.80;;;;;;2254289;61;20354;-62
2021/10/26 00:47:21;0.00;0.00;0.62;0.00;0.00;0.62;4.40;4.00;;;24.90;27.80;;;;;;2253231;61;20653;-61
2021/10/26 00:50:07;0.00;0.00;0.62;0.00;0.00;0.62;4.90;4.40;;;24.80;27.80;;;;;;2253578;61;20360;-62
2021/10/26 00:52:53;0.00;0.00;0.62;0.00;0.00;0.62;4.83;4.37;;;24.80;27.90;;;;;;2253444;61;20379;-62
2021/10/26 00:55:38;0.00;0.00;0.62;0.00;0.00;0.62;6.37;5.60;;;24.80;27.90;;;;;;2253337;61;20383;-62
2021/10/26 00:58:22;0.00;0.00;0.62;0.00;0.00;0.62;5.43;4.53;;;24.70;27.90;;;;;;2254086;61;20422;-62
2021/10/26 01:01:08;0.00;0.00;0.62;0.00;0.00;0.62;4.90;4.50;;;24.70;27.90;;;;;;2252891;61;20355;-62
2021/10/26 01:03:53;0.00;0.00;0.62;0.00;0.00;0.62;5.40;4.90;;;24.70;28.00;;;;;;2253659;61;20439;-63
2021/10/26 01:06:38;0.00;0.00;0.62;0.00;0.00;0.62;4.50;4.10;;;24.70;28.00;;;;;;2253732;61;20411;-62
2021/10/26 01:09:24;0.00;0.00;0.62;0.00;0.00;0.62;5.10;4.53;;;24.60;28.00;;;;;;2252835;61;20395;-62
2021/10/26 01:12:09;0.00;0.00;0.62;0.00;0.00;0.62;5.00;4.50;;;24.60;28.00;;;;;;2253554;61;20687;-62
2021/10/26 01:14:55;0.00;0.00;0.62;0.00;0.00;0.62;5.93;5.37;;;24.60;28.10;;;;;;2487502;53;20395;-62
2021/10/26 01:17:40;0.00;0.00;0.62;0.00;0.00;0.62;6.37;5.10;;;24.60;28.10;;;;;;2253219;61;20710;-62
2021/10/26 01:20:26;0.00;0.00;0.62;0.00;0.00;0.62;6.87;5.50;;;24.50;28.10;;;;;;2253619;61;20427;-62
2021/10/26 01:23:11;0.00;0.00;0.62;0.00;0.00;0.62;5.90;5.30;;;24.50;28.20;;;;;;2252788;61;20703;-62
2021/10/26 01:25:56;0.00;0.00;0.62;0.00;0.00;0.62;5.37;4.87;;;24.50;28.20;;;;;;2253393;61;20380;-62
2021/10/26 01:28:41;0.00;0.00;0.62;0.00;0.00;0.62;5.17;4.67;;;24.50;28.20;;;;;;2253722;61;20777;-62
2021/10/26 01:31:27;0.00;0.00;0.62;0.00;0.00;0.62;5.37;4.73;;;24.50;28.20;;;;;;2252733;61;20392;-62
2021/10/26 01:34:23;0.00;0.00;0.62;0.00;0.00;0.62;5.80;5.20;;;24.50;28.10;;;;;;2253400;61;20364;-62
2021/10/26 01:37:11;0.00;0.00;0.62;0.00;0.00;0.62;6.50;5.60;;;24.50;28.10;;;;;;2255916;61;20452;-62
2021/10/26 01:39:58;0.00;0.00;0.62;0.00;0.00;0.62;4.77;4.37;;;24.50;28.10;;;;;;2256161;61;20390;-62
2021/10/26 01:42:43;0.00;0.00;0.62;0.00;0.00;0.62;6.13;5.47;;;24.50;28.10;;;;;;2254014;61;20411;-62
2021/10/26 01:45:27;0.00;0.00;0.62;0.00;0.00;0.62;5.43;4.97;;;24.40;28.10;;;;;;2249695;61;20607;-62
2021/10/26 01:48:19;0.00;0.00;0.62;0.00;0.00;0.62;6.17;5.57;;;24.40;28.10;;;;;;2256274;61;20517;-62
2021/10/26 01:51:05;0.00;0.00;0.62;0.00;0.00;0.62;6.80;5.53;;;24.40;28.20;;;;;;2253656;61;20427;-62
2021/10/26 01:53:53;0.00;0.00;0.62;0.00;0.00;0.62;6.20;5.47;;;24.40;28.20;;;;;;2252644;61;20468;-62
2021/10/26 01:56:38;0.00;0.00;0.62;0.00;0.00;0.62;7.00;4.90;;;24.40;28.20;;;;;;2253281;61;20598;-62
2021/10/26 01:59:24;0.00;0.00;0.62;0.00;0.00;0.62;6.60;5.30;;;24.40;28.20;;;;;;2253223;61;20383;-61
2021/10/26 02:02:08;0.00;0.00;0.62;0.00;0.00;0.62;6.33;5.80;;;24.40;28.30;;;;;;2253490;61;20344;-62
2021/10/26 02:04:53;0.00;0.00;0.62;0.00;0.00;0.62;5.43;4.93;;;24.40;28.30;;;;;;2253427;61;20363;-62
2021/10/26 02:07:39;0.00;0.00;0.62;0.00;0.00;0.62;5.67;5.03;;;24.40;28.30;;;;;;2252569;61;20403;-62
2021/10/26 02:10:25;0.00;0.00;0.62;0.00;0.00;0.62;6.37;5.80;;;24.30;28.20;;;;;;2253390;61;20368;-62
2021/10/26 02:13:11;0.00;0.00;0.62;0.00;0.00;0.62;8.17;7.37;;;24.30;28.30;;;;;;2253598;61;20359;-61
2021/10/26 02:15:55;0.00;0.00;0.62;0.00;0.00;0.62;7.40;6.80;;;24.30;28.40;;;;;;2252715;61;20388;-62
2021/10/26 02:18:40;0.00;0.00;0.62;0.00;0.00;0.62;9.27;7.67;;;24.30;28.40;;;;;;2253365;61;20779;-62
2021/10/26 02:21:26;0.00;0.00;0.62;0.00;0.00;0.62;8.03;6.10;;;24.30;28.50;;;;;;2255853;61;20658;-62
2021/10/26 02:24:11;0.00;0.00;0.62;0.00;0.00;0.62;8.20;6.83;;;24.30;28.50;;;;;;2253571;61;20356;-62
2021/10/26 02:26:58;0.00;0.00;0.62;0.00;0.00;0.62;7.90;7.10;;;24.30;28.50;;;;;;2255966;61;20442;-62
2021/10/26 02:29:44;0.00;0.00;0.62;0.00;0.00;0.62;9.67;8.20;;;24.20;29.00;;;;;;2255112;61;20356;-61
2021/10/26 02:32:28;0.00;0.00;0.62;0.00;0.00;0.62;7.87;7.07;;;24.20;28.50;;;;;;2253501;61;20402;-62
2021/10/26 02:35:13;0.00;0.00;0.62;0.00;0.00;0.62;8.43;7.30;;;24.20;28.60;;;;;;2253238;61;20448;-62
2021/10/26 02:37:57;0.00;0.00;0.62;0.00;0.00;0.62;10.20;9.20;;;24.10;28.50;;;;;;2252476;61;20387;-60
2021/10/26 02:40:43;0.00;0.00;0.62;0.00;0.00;0.62;7.93;7.23;;;24.20;28.70;;;;;;2253403;61;20355;-60
2021/10/26 02:43:30;0.00;0.00;0.62;0.00;0.00;0.62;8.60;7.70;;;24.10;29.20;;;;;;2252954;61;20700;-62
2021/10/26 02:46:15;0.00;0.00;0.62;0.00;0.00;0.62;7.90;7.10;;;24.10;28.70;;;;;;2252988;61;20380;-60
2021/10/26 02:49:00;0.00;0.00;0.62;0.00;0.00;0.62;8.03;7.23;;;24.10;28.70;;;;;;2256132;61;20392;-63
2021/10/26 02:51:45;0.00;0.00;0.62;0.00;0.00;0.62;9.27;7.33;;;24.10;28.70;;;;;;2252595;61;20360;-62
2021/10/26 02:54:30;0.00;0.00;0.62;0.00;0.00;0.62;8.97;8.07;;;24.10;28.70;;;;;;2253922;61;20383;-62
2021/10/26 02:57:15;0.00;0.00;0.62;0.00;0.00;0.62;7.93;7.23;;;24.10;28.70;;;;;;2253233;61;20450;-62
2021/10/26 03:00:03;0.00;0.00;0.62;0.00;0.00;0.62;6.53;5.83;;;24.10;28.70;;;;;;2252645;61;20723;-62
2021/10/26 03:02:49;0.00;0.00;0.62;0.00;0.00;0.62;8.03;7.23;;;24.10;28.70;;;;;;2253258;61;20359;-62
2021/10/26 03:05:34;0.00;0.00;0.62;0.00;0.00;0.62;8.23;7.43;;;24.10;28.80;;;;;;2252988;61;20438;-60
2021/10/26 03:08:18;0.00;0.00;0.62;0.00;0.00;0.62;7.27;6.63;;;24.10;29.30;;;;;;2253385;61;20383;-60
2021/10/26 03:11:03;0.00;0.00;0.62;0.00;0.00;0.62;7.30;6.60;;;24.00;28.70;;;;;;2253141;61;20391;-61
2021/10/26 03:13:48;0.00;0.00;0.62;0.00;0.00;0.62;8.20;7.40;;;24.10;28.80;;;;;;2253216;61;20360;-61
2021/10/26 03:16:34;0.00;0.00;0.62;0.00;0.00;0.62;7.93;7.17;;;24.00;28.70;;;;;;2253101;61;20375;-60
2021/10/26 03:19:18;0.00;0.00;0.62;0.00;0.00;0.62;7.07;6.43;;;24.00;28.80;;;;;;2253387;61;20403;-61
2021/10/26 03:22:03;0.00;0.00;0.62;0.00;0.00;0.62;6.77;6.17;;;24.00;28.80;;;;;;2252403;61;20387;-62
2021/10/26 03:24:49;0.00;0.00;0.62;0.00;0.00;0.62;7.67;6.87;;;24.00;28.80;;;;;;2253113;61;20368;-60
2021/10/26 03:27:35;0.00;0.00;0.62;0.00;0.00;0.62;6.83;6.13;;;24.00;28.80;;;;;;2253787;61;20746;-62
2021/10/26 03:30:19;0.00;0.00;0.62;0.00;0.00;0.62;7.07;6.37;;;24.00;28.80;;;;;;2253150;61;20386;-62
2021/10/26 03:33:06;0.00;0.00;0.62;0.00;0.00;0.62;7.30;6.60;;;24.00;28.70;;;;;;2253127;61;20411;-62
2021/10/26 03:35:55;0.00;0.00;0.62;0.00;0.00;0.62;6.60;5.90;;;24.00;28.80;;;;;;2252466;61;20768;-62
2021/10/26 03:38:42;0.00;0.00;0.62;0.00;0.00;0.62;6.00;5.50;;;24.00;28.80;;;;;;2256026;61;20610;-62
2021/10/26 03:41:27;0.00;0.00;0.62;0.00;0.00;0.62;6.30;5.43;;;24.00;28.80;;;;;;2253284;61;20388;-62
2021/10/26 03:44:12;0.00;0.00;0.62;0.00;0.00;0.62;6.50;5.90;;;24.00;28.80;;;;;;2252655;61;20650;-62
2021/10/26 03:46:57;0.00;0.00;0.62;0.00;0.00;0.62;6.20;5.60;;;24.00;28.80;;;;;;2253130;61;20383;-60
2021/10/26 03:49:43;0.00;0.00;0.62;0.00;0.00;0.62;5.90;5.30;;;24.00;28.80;;;;;;2253717;61;20359;-62
2021/10/26 03:52:28;0.00;0.00;0.62;0.00;0.00;0.62;6.27;5.67;;;23.90;28.80;;;;;;2252594;61;20368;-60
2021/10/26 03:55:13;0.00;0.00;0.62;0.00;0.00;0.62;4.70;4.00;;;23.90;28.80;;;;;;2253019;61;20508;-61
2021/10/26 03:58:04;0.00;0.00;0.62;0.00;0.00;0.62;5.70;5.10;;;23.90;28.80;;;;;;2252697;61;20468;-60
2021/10/26 04:00:49;0.00;0.00;0.62;0.00;0.00;0.62;5.17;4.67;;;23.90;28.90;;;;;;2253239;61;20430;-60
2021/10/26 04:03:52;0.00;0.00;0.62;0.00;0.00;0.62;4.63;4.23;;;23.90;28.90;;;;;;2253526;61;20410;-61
2021/10/26 04:06:39;0.00;0.00;0.62;0.00;0.00;0.62;5.50;4.93;;;23.90;28.90;;;;;;2252080;61;20410;-60
2021/10/26 04:09:32;0.00;0.00;0.62;0.00;0.00;0.62;7.17;5.93;;;23.90;28.90;;;;;;2254166;61;20379;-60
2021/10/26 04:12:25;0.00;0.00;0.62;0.00;0.00;0.62;5.47;4.97;;;23.90;29.00;;;;;;2256221;61;20383;-62
2021/10/26 04:15:11;0.00;0.00;0.62;0.00;0.00;0.62;7.17;4.77;;;23.80;29.00;;;;;;2253578;61;20383;-60
2021/10/26 04:17:55;0.00;0.00;0.62;0.00;0.00;0.62;5.27;4.77;;;23.80;29.00;;;;;;2254275;61;20387;-62
2021/10/26 04:20:40;0.00;0.00;0.62;0.00;0.00;0.62;4.77;4.20;;;23.80;29.10;;;;;;2252836;61;20363;-62
2021/10/26 04:23:28;0.00;0.00;0.62;0.00;0.00;0.62;4.83;4.43;;;23.80;29.10;;;;;;2253858;61;20367;-62
2021/10/26 04:26:15;0.00;0.00;0.62;0.00;0.00;0.62;5.80;3.57;;;23.80;29.10;;;;;;2254166;61;20644;-60
2021/10/26 04:29:00;0.00;0.00;0.62;0.00;0.00;0.62;3.83;3.43;;;23.80;29.10;;;;;;2252971;61;20711;-60
2021/10/26 04:31:45;0.00;0.00;0.62;0.00;0.00;0.62;4.13;3.60;;;23.80;29.20;;;;;;2253778;61;20428;-60
2021/10/26 04:34:30;0.00;0.00;0.62;0.00;0.00;0.62;5.40;4.20;;;23.70;29.10;;;;;;2253235;61;20443;-62
2021/10/26 04:37:15;0.00;0.00;0.62;0.00;0.00;0.62;4.80;3.70;;;23.70;29.20;;;;;;2255978;61;20399;-63
2021/10/26 04:40:03;0.00;0.00;0.62;0.00;0.00;0.62;5.90;3.40;;;23.70;29.20;;;;;;2253800;61;20743;-61
2021/10/26 04:42:49;0.00;0.00;0.62;0.00;0.00;0.62;4.10;3.70;;;23.70;29.20;;;;;;2255579;61;20387;-62
2021/10/26 04:45:35;0.00;0.00;0.62;0.00;0.00;0.62;4.23;3.83;;;23.70;29.20;;;;;;2253855;61;20426;-62
2021/10/26 04:48:22;0.00;0.00;0.62;0.00;0.00;0.62;4.63;3.50;;;23.70;29.20;;;;;;2253845;61;20360;-61
2021/10/26 04:51:08;0.00;0.00;0.62;0.00;0.00;0.62;5.83;3.87;;;23.70;29.20;;;;;;2252804;61;20473;-61
2021/10/26 04:53:53;0.00;0.00;0.62;0.00;0.00;0.62;3.90;3.27;;;23.70;29.20;;;;;;2253756;61;20407;-61
2021/10/26 04:56:39;0.00;0.00;0.62;0.00;0.00;0.62;5.13;4.70;;;23.60;29.10;;;;;;2255835;61;20644;-61
2021/10/26 04:59:59;0.00;0.00;0.62;0.00;0.00;0.62;5.30;3.93;;;23.60;29.10;;;;;;2254221;61;20582;-62
2021/10/26 05:02:45;0.00;0.00;0.62;0.00;0.00;0.62;4.93;3.70;;;23.60;29.10;;;;;;2253594;61;20407;-61
2021/10/26 05:05:30;0.00;0.00;0.62;0.00;0.00;0.62;4.23;3.83;;;23.60;29.10;;;;;;2252660;61;20443;-61
2021/10/26 05:08:14;0.00;0.00;0.62;0.00;0.00;0.62;4.50;4.10;;;23.60;29.10;;;;;;2254026;61;20577;-61
2021/10/26 05:11:00;0.00;0.00;0.62;0.00;0.00;0.62;4.10;3.00;;;23.60;29.10;;;;;;2253746;61;20364;-61
2021/10/26 05:13:47;0.00;0.00;0.62;0.00;0.00;0.62;3.97;3.53;;;23.60;29.10;;;;;;2253092;61;20355;-61
2021/10/26 05:16:57;0.00;0.00;0.62;0.00;0.00;0.62;4.17;3.50;;;23.60;29.20;;;;;;2253518;61;20399;-62
2021/10/26 05:20:02;0.00;0.00;0.62;0.00;0.00;0.62;6.57;3.37;;;23.60;29.10;;;;;;2253409;61;20351;-60
2021/10/26 05:23:23;0.00;0.00;0.62;0.00;0.00;0.62;4.13;3.70;;;23.60;29.10;;;;;;2241282;62;20681;-61
2021/10/26 05:26:37;0.00;0.00;0.62;0.00;0.00;0.62;5.73;3.90;;;23.50;29.00;;;;;;2252645;61;20416;-60
2021/10/26 05:29:23;0.00;0.00;0.62;0.00;0.00;0.62;5.20;4.20;;;23.50;29.00;;;;;;2256188;61;20351;-62
2021/10/26 05:32:09;0.00;0.00;0.62;0.00;0.00;0.62;4.33;3.93;;;23.50;29.00;;;;;;2253648;61;20442;-61
2021/10/26 05:34:53;0.00;0.00;0.62;0.00;0.00;0.62;4.10;3.70;;;23.50;29.00;;;;;;2252771;61;20367;-62
2021/10/26 05:37:38;0.00;0.00;0.62;0.00;0.00;0.62;4.17;3.37;;;23.50;29.10;;;;;;2253900;61;20403;-63
2021/10/26 05:40:22;0.00;0.00;0.62;0.00;0.00;0.62;4.80;4.13;;;23.50;29.20;;;;;;2254214;61;20367;-61
2021/10/26 05:43:07;0.00;0.00;0.62;0.00;0.00;0.62;3.93;3.53;;;23.50;29.30;;;;;;2253276;61;20375;-61
2021/10/26 05:45:54;0.00;0.00;0.62;0.00;0.00;0.62;3.83;3.43;;;23.50;29.30;;;;;;2253017;61;20383;-61
2021/10/26 05:48:38;0.00;0.00;0.62;0.00;0.00;0.62;5.17;3.80;;;23.50;29.30;;;;;;2253497;61;20368;-63
2021/10/26 05:51:23;0.00;0.00;0.62;0.00;0.00;0.62;3.87;3.57;;;23.50;29.40;;;;;;2269217;58;20367;-60
2021/10/26 05:54:09;0.00;0.00;0.62;0.00;0.00;0.62;4.73;4.33;;;23.50;29.40;;;;;;2256159;61;20360;-60
2021/10/26 05:56:53;0.00;0.00;0.62;0.00;0.00;0.62;4.40;4.00;;;23.50;29.40;;;;;;2253114;61;20463;-60
2021/10/26 05:59:38;0.00;0.00;0.62;0.00;0.00;0.62;5.87;4.90;;;23.50;29.50;;;;;;2252896;61;20392;-63
2021/10/26 06:02:24;0.00;0.00;0.62;0.00;0.00;0.62;7.53;5.97;;;23.50;29.50;;;;;;2253515;61;20403;-61
2021/10/26 06:05:10;0.00;0.00;0.62;0.00;0.00;0.62;5.13;4.63;;;23.50;29.60;;;;;;2252746;61;20491;-61
2021/10/26 06:07:56;0.00;0.00;0.62;0.00;0.00;0.62;5.87;5.27;;;23.50;29.50;;;;;;2253453;61;20439;-61
2021/10/26 06:10:49;0.00;0.00;0.62;0.00;0.00;0.62;8.20;6.37;;;23.50;29.50;;;;;;2253266;61;20363;-61
2021/10/26 06:13:38;0.00;0.00;0.62;0.00;0.00;0.62;6.33;5.70;;;23.40;29.50;;;;;;2256066;61;20363;-62
2021/10/26 06:16:23;0.00;0.00;0.62;0.00;0.00;0.62;7.03;5.87;;;23.40;29.50;;;;;;2256000;61;20402;-61
2021/10/26 06:19:10;0.00;0.00;0.62;0.00;0.00;0.62;6.80;6.07;;;23.40;29.50;;;;;;2255481;61;20610;-65
2021/10/26 06:21:55;0.00;0.00;0.62;0.00;0.00;0.62;6.80;5.80;;;23.40;29.60;;;;;;2256248;61;20387;-63
2021/10/26 06:24:45;0.00;0.00;0.62;0.00;0.00;0.62;5.60;4.70;;;23.40;29.50;;;;;;2253567;61;20371;-63
2021/10/26 06:27:30;0.00;0.00;0.62;0.00;0.00;0.62;6.37;5.40;;;23.30;29.50;;;;;;2252817;61;20395;-59
2021/10/26 06:30:14;0.00;0.00;0.62;0.00;0.00;0.62;5.23;4.50;;;23.30;29.60;;;;;;2256124;61;20364;-61
2021/10/26 06:33:04;0.00;0.00;0.62;0.00;0.00;0.62;4.27;3.80;;;23.40;29.70;;;;;;2253152;61;20364;-63
2021/10/26 06:35:58;0.00;0.00;0.62;0.00;0.00;0.62;4.93;4.40;;;23.40;29.70;;;;;;2253071;61;20607;-64
2021/10/26 06:38:43;0.00;0.00;0.62;0.00;0.00;0.62;4.37;3.97;;;23.40;29.70;;;;;;2253327;61;20384;-61
2021/10/26 06:41:27;0.00;0.00;0.62;0.00;0.00;0.62;5.43;4.10;;;23.40;29.70;;;;;;2252800;61;20744;-62
2021/10/26 06:44:30;0.00;0.00;0.62;0.00;0.00;0.62;5.13;4.53;;;23.40;29.70;;;;;;2252448;61;20406;-63
2021/10/26 06:47:35;0.00;0.00;0.62;0.00;0.00;0.62;5.30;3.90;;;23.50;29.70;;;;;;2253489;61;20386;-62
2021/10/26 06:50:38;0.00;0.00;0.62;0.00;0.00;0.62;6.20;3.90;;;23.50;29.70;;;;;;2253091;61;20359;-61
2021/10/26 06:53:43;0.00;0.00;0.62;0.00;0.00;0.62;4.03;3.63;;;23.50;29.70;;;;;;2254009;61;20439;-60
2021/10/26 06:56:59;0.00;0.00;0.62;0.00;0.00;0.62;4.70;4.20;;;23.50;29.70;;;;;;2253188;61;20384;-62
2021/10/26 07:00:05;0.00;0.00;0.62;0.00;0.00;0.62;4.77;4.00;;;23.50;29.70;;;;;;2253800;61;20615;-62
2021/10/26 07:03:10;0.00;0.00;0.62;0.00;0.00;0.62;4.23;3.77;;;23.60;29.70;;;;;;2253480;61;20436;-62
2021/10/26 07:06:13;0.00;0.00;0.62;0.00;0.00;0.62;4.20;3.70;;;23.60;29.70;;;;;;2253753;61;20418;-62
2021/10/26 07:08:59;0.00;0.00;0.62;0.00;0.00;0.62;5.57;4.10;;;23.60;29.60;;;;;;2253968;61;20380;-62
2021/10/26 07:12:07;0.00;0.00;0.62;0.00;0.00;0.62;3.93;3.63;;;23.60;29.60;;;;;;2253395;61;20367;-62
2021/10/26 07:14:52;0.00;0.00;0.62;0.00;0.00;0.62;4.53;3.90;;;23.70;29.60;;;;;;2253493;61;20364;-62
2021/10/26 07:17:39;0.00;0.00;0.62;0.00;0.00;0.62;4.10;3.70;;;23.70;29.60;;;;;;2252931;61;20379;-62
2021/10/26 07:20:24;0.00;0.00;0.62;0.00;0.00;0.62;7.20;3.80;;;23.70;29.60;;;;;;2253632;61;20367;-61
2021/10/26 07:23:27;0.00;0.00;0.62;0.00;0.00;0.62;4.70;4.07;;;23.70;29.60;;;;;;2253887;61;20440;-62
2021/10/26 07:26:34;0.00;0.00;0.62;0.00;0.00;0.62;3.60;3.30;;;23.70;29.50;;;;;;2253148;61;20403;-62
2021/10/26 07:29:19;0.00;0.00;0.62;0.00;0.00;0.62;5.30;3.73;;;23.70;29.50;;;;;;2253317;61;20380;-62
2021/10/26 07:32:06;0.00;0.00;0.62;0.00;0.00;0.62;4.37;3.90;;;23.70;29.50;;;;;;2253150;61;20387;-62
2021/10/26 07:34:51;0.00;0.00;0.62;0.00;0.00;0.62;3.77;3.47;;;23.70;29.50;;;;;;2252998;61;20367;-60
2021/10/26 07:37:46;0.00;0.00;0.62;0.00;0.00;0.62;3.53;3.23;;;23.80;29.50;;;;;;2253137;61;20492;-63
2021/10/26 07:40:36;0.00;0.00;0.62;0.00;0.00;0.62;3.23;2.93;;;23.70;29.40;;;;;;2252736;61;20379;-61
2021/10/26 07:43:41;0.00;0.00;0.62;0.00;0.00;0.62;3.90;3.30;;;23.80;29.40;;;;;;2254034;61;20701;-63
2021/10/26 07:46:52;0.00;0.00;0.62;0.00;0.00;0.62;3.70;3.27;;;23.80;29.40;;;;;;2254128;61;20387;-62
2021/10/26 07:49:40;0.00;0.00;0.62;0.00;0.00;0.62;3.50;3.10;;;23.80;29.30;;;;;;2253686;61;20395;-63
2021/10/26 07:52:25;0.00;0.00;0.62;0.00;0.00;0.62;4.03;3.03;;;23.80;29.30;;;;;;2254003;61;20415;-63
2021/10/26 07:55:51;0.00;0.00;0.62;0.00;0.00;0.62;4.60;3.80;;;23.80;29.30;;;;;;2253015;61;20439;-61
2021/10/26 07:58:39;0.00;0.00;0.62;0.00;0.00;0.62;4.20;3.30;;;23.80;29.30;;;;;;2254118;61;20419;-61
2021/10/26 08:01:25;0.00;0.00;0.62;0.00;0.00;0.62;4.13;3.77;;;23.80;29.30;;;;;;2256992;61;20460;-63
2021/10/26 08:04:28;0.00;0.00;0.62;0.00;0.00;0.62;4.50;3.50;;;23.80;29.30;;;;;;2254198;61;20367;-63
2021/10/26 08:07:34;0.00;0.00;0.62;0.00;0.00;0.62;4.10;3.30;;;23.80;29.30;;;;;;2254038;61;20414;-63
2021/10/26 08:10:19;0.00;0.00;0.62;0.00;0.00;0.62;3.07;2.77;;;23.90;29.30;;;;;;2253346;61;20434;-62
2021/10/26 08:13:04;0.00;0.00;0.62;0.00;0.00;0.62;3.47;3.17;;;23.90;29.30;;;;;;2253923;61;20410;-62
2021/10/26 08:15:48;0.00;0.00;0.62;0.00;0.00;0.62;3.87;3.50;;;23.90;29.30;;;;;;2253824;61;20448;-62
2021/10/26 08:18:34;0.00;0.00;0.62;0.00;0.00;0.62;3.10;2.80;;;23.90;29.40;;;;;;2256002;61;20387;-62
2021/10/26 08:21:19;0.00;0.00;0.62;0.00;0.00;0.62;3.57;3.27;;;23.90;29.40;;;;;;2256687;61;20815;-62
2021/10/26 08:24:08;0.00;0.00;0.62;0.00;0.00;0.62;3.50;3.20;;;23.90;29.30;;;;;;2253601;61;20387;-62
2021/10/26 08:26:57;0.00;0.00;0.62;0.00;0.00;0.62;3.47;2.87;;;24.00;29.40;;;;;;2253599;61;20443;-62
2021/10/26 08:29:51;0.00;0.00;0.62;0.00;0.00;0.62;3.30;2.90;;;24.00;29.40;;;;;;2253923;61;20351;-62
2021/10/26 08:32:55;0.00;0.00;0.62;0.00;0.00;0.62;3.00;2.70;;;24.00;29.40;;;;;;2253201;61;20756;-62
2021/10/26 08:35:48;0.00;0.00;0.62;0.00;0.00;0.62;3.20;2.90;;;24.00;29.40;;;;;;2253567;61;20423;-62
2021/10/26 08:38:33;0.00;0.00;0.62;0.00;0.00;0.62;3.17;2.77;;;24.00;29.40;;;;;;2253702;61;20383;-62
2021/10/26 08:41:23;0.00;0.00;0.62;0.00;0.00;0.62;3.00;2.70;;;24.00;29.40;;;;;;2253694;61;20359;-62
2021/10/26 08:44:08;0.00;0.00;0.62;0.00;0.00;0.62;3.10;2.80;;;24.00;29.40;;;;;;2256505;61;20387;-62
2021/10/26 08:46:54;0.00;0.00;0.62;0.00;0.00;0.62;3.07;2.77;;;24.00;29.30;;;;;;2253348;61;20415;-62
2021/10/26 08:49:45;0.00;0.00;0.62;0.00;0.00;0.62;3.07;2.73;;;24.10;29.40;;;;;;2253950;61;20744;-61
2021/10/26 08:52:53;0.00;0.00;0.62;0.00;0.00;0.62;2.77;2.50;;;24.10;29.40;;;;;;2256719;61;20367;-62
2021/10/26 08:55:58;0.00;0.00;0.62;0.00;0.00;0.62;3.20;2.90;;;24.10;29.40;;;;;;2254014;61;20479;-62
2021/10/26 08:59:07;0.00;0.00;0.62;0.00;0.00;0.62;3.20;2.80;;;24.10;29.30;;;;;;2254112;61;20387;-62
2021/10/26 09:01:55;0.00;0.00;0.62;0.00;0.00;0.62;4.47;2.83;;;24.10;29.30;;;;;;2253021;61;20399;-61
2021/10/26 09:04:40;0.00;0.00;0.62;0.00;0.00;0.62;2.60;2.40;;;24.10;29.30;;;;;;2253745;61;20363;-63
2021/10/26 09:07:25;0.00;0.00;0.62;0.00;0.00;0.62;3.07;2.70;;;24.10;29.30;;;;;;2253887;61;20460;-60
2021/10/26 09:10:15;0.00;0.00;0.62;0.00;0.00;0.62;2.73;2.43;;;24.10;29.30;;;;;;2253598;61;20360;-62
2021/10/26 09:16:47;0.00;0.00;0.62;0.00;0.00;0.62;3.30;3.00;;;24.10;29.20;;;;;;2253285;61;20418;-62
2021/10/26 09:19:54;0.00;0.00;0.62;0.00;0.00;0.62;3.20;2.90;;;24.10;29.30;;;;;;2253772;61;20779;-62
2021/10/26 09:22:55;0.00;0.00;0.62;0.00;0.00;0.62;3.50;2.90;;;24.10;29.30;;;;;;2253739;61;20440;-63
2021/10/26 09:25:42;0.00;0.00;0.62;0.00;0.00;0.62;3.50;3.03;;;24.10;29.30;;;;;;2253719;61;20783;-63
2021/10/26 09:28:29;0.00;0.00;0.62;0.00;0.00;0.62;3.50;3.20;;;24.10;29.30;;;;;;2253625;61;20355;-61
2021/10/26 09:31:23;0.00;0.00;0.62;0.00;0.00;0.62;2.90;2.60;;;24.10;29.30;;;;;;2256253;61;20360;-63
2021/10/26 09:34:13;0.00;0.00;0.62;0.00;0.00;0.62;5.17;3.10;;;24.10;29.30;;;;;;2253867;61;20428;-61
2021/10/26 09:37:03;0.00;0.00;0.62;0.00;0.00;0.62;4.83;3.33;;;24.10;29.30;;;;;;2254071;61;20376;-62
2021/10/26 09:39:53;0.00;0.00;0.62;0.00;0.00;0.62;2.43;2.23;;;24.10;29.30;;;;;;2253485;61;20387;-62
2021/10/26 09:42:45;0.00;0.00;0.62;0.00;0.00;0.62;3.20;2.90;;;24.10;29.30;;;;;;2253994;61;20371;-62
2021/10/26 09:45:32;0.00;0.00;0.62;0.00;0.00;0.62;2.83;2.27;;;24.10;29.30;;;;;;2253708;61;20795;-62
2021/10/26 09:48:20;0.00;0.00;0.62;0.00;0.00;0.62;2.70;2.40;;;24.20;29.30;;;;;;2253960;61;20360;-61
2021/10/26 09:51:09;0.00;0.00;0.62;0.00;0.00;0.62;2.77;2.53;;;24.20;29.30;;;;;;2253922;61;20419;-62
2021/10/26 09:53:57;0.00;0.00;0.62;0.00;0.00;0.62;2.93;2.20;;;24.20;29.30;;;;;;2253003;61;20403;-62
2021/10/26 09:57:01;0.00;0.00;0.62;0.00;0.00;0.62;2.80;2.27;;;24.20;29.40;;;;;;2253651;61;20383;-63
2021/10/26 09:59:50;0.00;0.00;0.62;0.00;0.00;0.62;3.00;2.50;;;24.30;29.50;;;;;;2254191;61;20391;-63
2021/10/26 10:02:35;0.00;0.00;0.62;0.00;0.00;0.62;3.97;3.20;;;24.30;29.60;;;;;;2252417;61;20376;-63
2021/10/26 10:05:24;0.00;0.00;0.62;0.00;0.00;0.62;2.93;2.63;;;24.30;29.60;;;;;;2257137;61;20703;-62
2021/10/26 10:08:21;0.00;0.00;0.62;0.00;0.00;0.62;4.23;2.63;;;24.30;29.60;;;;;;2257556;61;20383;-63
2021/10/26 10:11:19;0.00;0.00;0.62;0.00;0.00;0.62;3.20;2.90;;;24.30;29.60;;;;;;2257111;61;20372;-61
2021/10/26 10:14:04;0.00;0.00;0.62;0.00;0.00;0.62;3.43;2.87;;;24.40;29.70;;;;;;2253641;61;20832;-61
2021/10/26 10:16:52;0.00;0.00;0.62;0.00;0.00;0.62;3.30;2.83;;;24.40;29.70;;;;;;2252427;61;20419;-63
2021/10/26 10:19:40;0.00;0.00;0.62;0.00;0.00;0.62;3.27;2.97;;;24.50;29.80;;;;;;2253877;61;20387;-60
2021/10/26 10:22:28;0.00;0.00;0.62;0.00;0.00;0.62;2.87;2.50;;;24.50;29.90;;;;;;2253274;61;20360;-61
2021/10/26 10:25:15;0.00;0.00;0.62;0.00;0.00;0.62;3.03;2.63;;;24.60;30.00;;;;;;2253661;61;20407;-60
2021/10/26 10:28:02;0.00;0.00;0.62;0.00;0.00;0.62;2.77;2.57;;;24.60;30.00;;;;;;2253831;61;20447;-60
2021/10/26 10:30:47;0.00;0.00;0.62;0.00;0.00;0.62;4.00;2.80;;;24.60;30.00;;;;;;2253238;61;20360;-60
2021/10/26 10:33:34;0.00;0.00;0.62;0.00;0.00;0.62;2.60;2.33;;;24.70;30.00;;;;;;2253766;61;20394;-61
2021/10/26 10:36:20;0.00;0.00;0.62;0.00;0.00;0.62;2.73;2.47;;;24.70;30.00;;;;;;2253824;61;20391;-58
2021/10/26 10:39:07;0.00;0.00;0.62;0.00;0.00;0.62;2.80;2.47;;;24.80;30.00;;;;;;2253226;61;20442;-60
2021/10/26 10:42:22;0.00;0.00;0.62;0.00;0.00;0.62;3.43;2.53;;;24.90;30.00;;;;;;2253867;61;20583;-59
2021/10/26 10:45:24;0.00;0.00;0.62;0.00;0.00;0.62;3.07;2.43;;;24.90;30.00;;;;;;2253553;61;20680;-59
2021/10/26 10:48:26;0.00;0.00;0.62;0.00;0.00;0.62;2.67;2.30;;;25.00;30.00;;;;;;2254014;61;20392;-60
2021/10/26 10:51:13;0.00;0.00;0.62;0.00;0.00;0.62;4.57;2.57;;;25.00;30.00;;;;;;2253899;61;20395;-61
2021/10/26 10:53:57;0.00;0.00;0.62;0.00;0.00;0.62;3.73;2.10;;;25.00;30.00;;;;;;2253198;61;20372;-60
2021/10/26 10:56:45;0.00;0.00;0.62;0.00;0.00;0.62;3.43;2.60;;;25.10;30.10;;;;;;2253637;61;20392;-60
2021/10/26 10:59:42;0.00;0.00;0.62;0.00;0.00;0.62;2.93;2.57;;;25.10;30.10;;;;;;2253336;61;20478;-63
2021/10/26 11:02:33;0.00;0.00;0.62;0.00;0.00;0.62;2.80;2.50;;;25.10;30.00;;;;;;2253142;61;20356;-63
2021/10/26 11:05:42;0.00;0.00;0.62;0.00;0.00;0.62;2.20;1.80;;;25.10;30.00;;;;;;2253667;61;20432;-59
2021/10/26 11:08:49;0.00;0.00;0.62;0.00;0.00;0.62;2.70;2.47;;;25.10;29.90;;;;;;2253112;61;20364;-62
2021/10/26 11:12:07;0.00;0.00;0.62;0.00;0.00;0.62;2.63;2.43;;;25.20;29.90;;;;;;2253854;61;20575;-60